createdAt,value
2023-02-07T00:00:39.444Z,3.69
2023-02-07T00:03:41.884Z,3.80
2023-02-07T00:06:44.112Z,3.72
2023-02-07T00:09:46.239Z,3.49
2023-02-07T00:12:49.970Z,3.45
2023-02-07T00:15:52.097Z,3.54
2023-02-07T00:18:55.050Z,3.34
2023-02-07T00:21:57.156Z,3.33
2023-02-07T00:24:59.303Z,3.32
2023-02-07T00:28:01.545Z,3.26
2023-02-07T00:31:08.973Z,3.29
2023-02-07T00:34:11.798Z,3.14
2023-02-07T00:37:14.001Z,3.15
2023-02-07T00:40:18.591Z,3.36
2023-02-07T00:43:29.373Z,3.50
2023-02-07T00:46:33.080Z,3.31
2023-02-07T00:49:35.319Z,3.31
2023-02-07T00:52:37.602Z,2.97
2023-02-07T00:55:39.934Z,2.69
2023-02-07T00:58:42.134Z,2.87
2023-02-07T01:01:44.388Z,3.14
2023-02-07T01:04:46.541Z,3.21
2023-02-07T01:07:48.715Z,3.40
2023-02-07T01:10:50.867Z,3.28
2023-02-07T01:13:53.154Z,3.41
2023-02-07T01:16:57.595Z,3.06
2023-02-07T01:20:00.013Z,3.21
2023-02-07T01:23:02.406Z,3.26
2023-02-07T01:26:05.714Z,2.85
2023-02-07T01:29:08.554Z,2.81
2023-02-07T01:32:10.801Z,2.90
2023-02-07T01:35:12.959Z,2.91
2023-02-07T01:38:15.923Z,2.92
2023-02-07T01:41:18.586Z,2.89
2023-02-07T01:44:23.764Z,2.80
2023-02-07T01:47:26.551Z,2.62
2023-02-07T01:50:29.320Z,2.70
2023-02-07T01:53:33.138Z,2.88
2023-02-07T01:56:36.169Z,2.92
2023-02-07T01:59:40.882Z,2.90
2023-02-07T02:02:43.593Z,2.84
2023-02-07T02:05:50.184Z,2.79
2023-02-07T02:08:58.035Z,2.87
2023-02-07T02:12:18.469Z,2.66
2023-02-07T02:15:48.599Z,2.32
2023-02-07T02:18:59.630Z,2.17
2023-02-07T02:22:32.734Z,2.31
2023-02-07T02:25:53.688Z,2.17
2023-02-07T02:29:53.495Z,2.17
2023-02-07T02:33:02.275Z,2.23
2023-02-07T02:36:23.257Z,2.19
2023-02-07T02:40:12.875Z,2.30
2023-02-07T02:43:25.204Z,2.27
2023-02-07T02:46:34.983Z,2.03
2023-02-07T02:49:37.871Z,2.11
2023-02-07T02:52:50.345Z,2.24
2023-02-07T02:56:29.825Z,2.12
2023-02-07T02:59:41.913Z,1.95
2023-02-07T03:02:57.729Z,1.89
2023-02-07T03:06:18.833Z,1.98
2023-02-07T03:09:27.006Z,1.93
2023-02-07T03:12:52.471Z,1.95
2023-02-07T03:16:23.643Z,1.97
2023-02-07T03:19:33.407Z,2.02
2023-02-07T03:22:36.054Z,2.19
2023-02-07T03:25:39.311Z,2.00
2023-02-07T03:28:43.931Z,1.86
2023-02-07T03:31:49.048Z,1.86
2023-02-07T03:34:54.427Z,1.74
2023-02-07T03:38:03.495Z,1.67
2023-02-07T03:41:12.008Z,1.72
2023-02-07T03:44:15.282Z,1.84
2023-02-07T03:47:18.819Z,1.84
2023-02-07T03:50:21.119Z,1.64
2023-02-07T03:53:23.307Z,1.51
2023-02-07T03:56:25.438Z,1.49
2023-02-07T03:59:27.943Z,1.63
2023-02-07T04:02:30.586Z,1.66
2023-02-07T04:05:32.718Z,1.57
2023-02-07T04:08:35.122Z,1.57
2023-02-07T04:11:37.252Z,1.76
2023-02-07T04:14:39.386Z,1.70
2023-02-07T04:17:41.729Z,1.42
2023-02-07T04:20:44.019Z,1.38
2023-02-07T04:23:46.164Z,1.49
2023-02-07T04:26:48.935Z,1.60
2023-02-07T04:29:51.262Z,1.71
2023-02-07T04:32:55.846Z,1.78
2023-02-07T04:35:59.935Z,1.70
2023-02-07T04:39:02.541Z,1.83
2023-02-07T04:42:04.909Z,1.45
2023-02-07T04:45:07.335Z,1.32
2023-02-07T04:48:09.491Z,1.26
2023-02-07T04:51:12.153Z,1.26
2023-02-07T04:54:14.330Z,1.29
2023-02-07T04:57:16.763Z,1.36
2023-02-07T05:00:19.528Z,1.25
2023-02-07T05:03:21.698Z,1.22
2023-02-07T05:06:23.815Z,1.28
2023-02-07T05:09:26.003Z,1.23
2023-02-07T05:12:28.213Z,1.28
2023-02-07T05:15:30.799Z,1.29
2023-02-07T05:18:32.982Z,1.25
2023-02-07T05:21:35.730Z,1.34
2023-02-07T05:24:38.794Z,1.46
2023-02-07T05:27:41.187Z,1.27
2023-02-07T05:30:43.413Z,1.30
2023-02-07T05:33:45.744Z,1.21
2023-02-07T05:36:47.895Z,1.36
2023-02-07T05:39:50.055Z,1.35
2023-02-07T05:42:52.442Z,1.19
2023-02-07T05:45:54.779Z,1.05
2023-02-07T05:48:56.957Z,1.22
2023-02-07T05:51:59.157Z,1.27
2023-02-07T05:55:01.427Z,1.22
2023-02-07T05:58:03.779Z,1.34
2023-02-07T06:01:05.948Z,1.53
2023-02-07T06:04:08.167Z,1.57
2023-02-07T06:07:10.334Z,1.40
2023-02-07T06:10:13.276Z,1.64
2023-02-07T06:13:15.596Z,1.63
2023-02-07T06:16:17.814Z,1.49
2023-02-07T06:19:20.084Z,1.62
2023-02-07T06:22:22.608Z,1.59
2023-02-07T06:25:27.748Z,1.51
2023-02-07T06:28:29.980Z,1.47
2023-02-07T06:31:32.234Z,1.39
2023-02-07T06:34:34.540Z,1.35
2023-02-07T06:37:37.119Z,1.38
2023-02-07T06:40:44.621Z,1.51
2023-02-07T06:43:49.574Z,1.70
2023-02-07T06:46:51.915Z,1.80
2023-02-07T06:49:54.657Z,1.87
2023-02-07T06:53:01.897Z,1.76
2023-02-07T06:56:04.372Z,1.87
2023-02-07T06:59:06.709Z,2.01
2023-02-07T07:02:11.124Z,2.05
2023-02-07T07:05:15.468Z,2.14
2023-02-07T07:08:19.110Z,2.26
2023-02-07T07:11:22.421Z,2.29
2023-02-07T07:14:24.630Z,2.35
2023-02-07T07:17:31.735Z,2.50
2023-02-07T07:20:34.118Z,2.61
2023-02-07T07:23:36.727Z,2.98
2023-02-07T07:26:49.431Z,3.14
2023-02-07T07:29:52.766Z,3.18
2023-02-07T07:32:55.614Z,3.22
2023-02-07T07:35:59.432Z,3.31
2023-02-07T07:39:01.700Z,3.50
2023-02-07T07:42:05.593Z,3.57
2023-02-07T07:45:31.106Z,3.63
2023-02-07T07:48:36.036Z,3.72
2023-02-07T07:51:38.312Z,3.81
2023-02-07T07:54:40.529Z,3.86
2023-02-07T07:57:42.733Z,3.93
2023-02-07T08:00:45.192Z,3.88
2023-02-07T08:03:54.911Z,3.96
2023-02-07T08:06:57.890Z,3.87
2023-02-07T08:10:00.315Z,3.83
2023-02-07T08:13:03.004Z,3.82
2023-02-07T08:16:10.967Z,3.76
2023-02-07T08:19:13.224Z,3.77
2023-02-07T08:22:15.848Z,3.78
2023-02-07T08:25:22.684Z,3.87
2023-02-07T08:28:26.273Z,3.87
2023-02-07T08:31:28.607Z,3.92
2023-02-07T08:34:37.131Z,3.88
2023-02-07T08:37:39.440Z,3.89
2023-02-07T08:40:42.043Z,3.99
2023-02-07T08:43:46.809Z,4.00
2023-02-07T08:46:49.212Z,4.01
2023-02-07T08:49:51.849Z,4.15
2023-02-07T08:52:58.074Z,4.25
2023-02-07T08:56:04.156Z,4.37
2023-02-07T08:59:09.262Z,4.64
2023-02-07T09:02:12.498Z,4.89
2023-02-07T09:05:25.363Z,4.87
2023-02-07T09:08:27.688Z,4.90
2023-02-07T09:11:33.288Z,4.79
2023-02-07T09:14:35.829Z,5.11
2023-02-07T09:17:58.281Z,5.06
2023-02-07T09:21:02.525Z,4.93
2023-02-07T09:24:04.870Z,5.01
2023-02-07T09:27:08.566Z,5.22
2023-02-07T09:30:12.175Z,5.33
2023-02-07T09:33:15.264Z,5.37
2023-02-07T09:36:21.586Z,5.40
2023-02-07T09:39:24.730Z,5.50
2023-02-07T09:42:33.935Z,5.51
2023-02-07T09:45:41.234Z,5.57
2023-02-07T09:48:51.432Z,5.81
2023-02-07T09:51:57.254Z,5.86
2023-02-07T09:55:05.542Z,6.00
2023-02-07T09:58:41.252Z,6.11
2023-02-07T10:01:51.685Z,5.98
2023-02-07T10:04:59.240Z,5.87
2023-02-07T10:08:01.434Z,6.16
2023-02-07T10:11:19.425Z,6.05
2023-02-07T10:14:53.870Z,6.08
2023-02-07T10:18:34.398Z,5.99
2023-02-07T10:21:58.118Z,6.10
2023-02-07T10:25:16.971Z,6.27
2023-02-07T10:28:51.656Z,6.37
2023-02-07T10:31:55.086Z,6.55
2023-02-07T10:35:04.653Z,6.72
2023-02-07T10:38:22.954Z,6.81
2023-02-07T10:41:40.197Z,6.82
2023-02-07T10:44:43.027Z,6.87
2023-02-07T10:47:45.951Z,6.81
2023-02-07T10:50:48.988Z,7.01
2023-02-07T10:54:07.588Z,7.29
2023-02-07T10:57:17.158Z,7.39
2023-02-07T11:08:14.734Z,7.48
2023-02-07T11:11:40.610Z,7.66
2023-02-07T11:15:01.378Z,7.78
2023-02-07T11:18:04.199Z,7.85
2023-02-07T11:21:08.477Z,8.04
2023-02-07T11:24:31.262Z,8.21
2023-02-07T11:27:38.631Z,8.14
2023-02-07T11:30:40.866Z,8.27
2023-02-07T11:33:43.340Z,8.36
2023-02-07T11:36:48.305Z,8.49
2023-02-07T11:39:54.285Z,8.47
2023-02-07T11:43:22.155Z,8.45
2023-02-07T11:46:31.677Z,8.64
2023-02-07T11:49:38.159Z,8.81
2023-02-07T11:52:44.304Z,8.90
2023-02-07T11:55:46.585Z,9.05
2023-02-07T11:58:53.768Z,9.15
2023-02-07T12:01:58.572Z,9.32
2023-02-07T12:05:28.241Z,9.49
2023-02-07T12:08:38.289Z,9.59
2023-02-07T12:11:41.224Z,9.72
2023-02-07T12:14:56.205Z,9.85
2023-02-07T12:18:03.418Z,9.93
2023-02-07T12:21:25.278Z,10.10
2023-02-07T12:24:42.644Z,10.21
2023-02-07T12:27:46.315Z,10.29
2023-02-07T12:30:54.167Z,10.42
2023-02-07T12:34:21.135Z,10.53
2023-02-07T12:37:31.015Z,10.62
2023-02-07T12:40:40.506Z,10.72
2023-02-07T12:43:51.213Z,10.78
2023-02-07T12:47:15.368Z,10.90
2023-02-07T12:50:29.770Z,10.97
2023-02-07T12:54:09.731Z,11.06
2023-02-07T12:57:39.629Z,11.11
2023-02-07T13:01:02.438Z,11.21
2023-02-07T13:04:38.697Z,11.23
2023-02-07T13:07:49.816Z,11.29
2023-02-07T13:11:01.028Z,11.31
2023-02-07T13:14:12.546Z,11.25
2023-02-07T13:17:38.747Z,11.24
2023-02-07T13:20:50.124Z,11.26
2023-02-07T13:24:00.589Z,11.28
2023-02-07T13:27:06.475Z,11.34
2023-02-07T13:30:17.048Z,11.39
2023-02-07T13:33:25.134Z,11.47
2023-02-07T13:36:43.895Z,11.51
2023-02-07T13:40:02.482Z,11.55
2023-02-07T13:43:13.750Z,11.52
2023-02-07T13:46:46.489Z,11.60
2023-02-07T13:50:24.043Z,11.59
2023-02-07T13:54:02.373Z,11.61
2023-02-07T13:57:23.048Z,11.67
2023-02-07T14:04:08.385Z,11.72
2023-02-07T14:07:21.239Z,11.69
2023-02-07T14:10:40.872Z,11.71
2023-02-07T14:13:44.466Z,11.78
2023-02-07T14:16:54.157Z,11.77
2023-02-07T14:20:01.050Z,11.76
2023-02-07T14:23:11.104Z,11.80
2023-02-07T14:26:38.220Z,11.81
2023-02-07T14:29:41.594Z,11.80
2023-02-07T14:32:45.319Z,11.78
2023-02-07T14:36:04.850Z,11.77
2023-02-07T14:39:27.932Z,11.72
2023-02-07T14:42:30.191Z,11.73
2023-02-07T14:45:35.779Z,11.71
2023-02-07T14:49:07.383Z,11.72
2023-02-07T14:52:15.858Z,11.68
2023-02-07T14:55:22.252Z,11.65
2023-02-07T14:58:38.360Z,11.67
2023-02-07T15:01:40.578Z,11.62
2023-02-07T15:04:43.738Z,11.58
2023-02-07T15:07:47.235Z,11.52
2023-02-07T15:11:04.871Z,11.46
2023-02-07T15:14:07.189Z,11.38
2023-02-07T15:17:10.890Z,11.29
2023-02-07T15:20:19.523Z,11.22
2023-02-07T15:23:23.220Z,10.90
2023-02-07T15:26:25.500Z,10.80
2023-02-07T15:29:39.052Z,10.75
2023-02-07T15:32:52.630Z,10.49
2023-02-07T15:35:54.861Z,10.21
2023-02-07T15:38:58.356Z,9.92
2023-02-07T15:42:00.605Z,9.61
2023-02-07T15:45:04.067Z,9.33
2023-02-07T15:48:15.670Z,9.11
2023-02-07T15:51:30.496Z,8.94
2023-02-07T15:54:37.417Z,8.74
2023-02-07T15:57:43.027Z,8.58
2023-02-07T16:00:45.240Z,8.54
2023-02-07T16:03:47.774Z,8.35
2023-02-07T16:07:12.242Z,8.23
2023-02-07T16:10:34.713Z,8.10
2023-02-07T16:13:44.841Z,8.00
2023-02-07T16:16:55.335Z,7.90
2023-02-07T16:19:57.483Z,7.82
2023-02-07T16:23:04.576Z,7.73
2023-02-07T16:26:06.846Z,7.65
2023-02-07T16:29:13.875Z,7.61
2023-02-07T16:32:16.981Z,7.52
2023-02-07T16:35:25.428Z,7.46
2023-02-07T16:38:27.589Z,7.35
2023-02-07T16:41:32.352Z,7.25
2023-02-07T16:44:35.984Z,7.16
2023-02-07T16:47:38.144Z,7.14
2023-02-07T16:50:40.633Z,7.06
2023-02-07T16:53:43.115Z,7.04
2023-02-07T16:56:47.193Z,6.98
2023-02-07T16:59:49.342Z,6.93
2023-02-07T17:02:52.755Z,6.82
2023-02-07T17:05:54.931Z,6.70
2023-02-07T17:08:57.081Z,6.71
2023-02-07T17:11:59.269Z,6.58
2023-02-07T17:15:02.393Z,6.59
2023-02-07T17:18:04.664Z,6.55
2023-02-07T17:21:08.940Z,6.56
2023-02-07T17:24:11.198Z,6.54
2023-02-07T17:27:14.716Z,6.52
2023-02-07T17:30:38.481Z,6.53
2023-02-07T17:33:41.021Z,6.53
2023-02-07T17:36:48.478Z,6.48
2023-02-07T17:39:52.603Z,6.58
2023-02-07T17:42:54.796Z,6.58
2023-02-07T17:45:57.123Z,6.65
2023-02-07T17:48:59.712Z,6.63
2023-02-07T17:52:02.749Z,6.53
2023-02-07T17:55:05.295Z,6.46
2023-02-07T17:58:07.584Z,6.41
2023-02-07T18:01:09.817Z,6.34
2023-02-07T18:04:12.113Z,6.40
2023-02-07T18:07:14.641Z,6.40
2023-02-07T18:10:28.394Z,6.33
2023-02-07T18:13:30.640Z,6.29
2023-02-07T18:16:32.865Z,6.26
2023-02-07T18:19:35.082Z,6.15
2023-02-07T18:22:37.560Z,6.05
2023-02-07T18:25:39.962Z,5.97
2023-02-07T18:28:43.431Z,5.88
2023-02-07T18:31:46.420Z,5.93
2023-02-07T18:34:49.135Z,5.95
2023-02-07T18:37:51.633Z,5.89
2023-02-07T18:40:53.948Z,5.95
2023-02-07T18:43:56.357Z,5.97
2023-02-07T18:46:58.633Z,5.96
2023-02-07T18:50:03.452Z,5.86
2023-02-07T18:53:05.755Z,5.88
2023-02-07T18:56:11.232Z,5.86
2023-02-07T18:59:17.250Z,5.89
2023-02-07T19:02:19.661Z,5.81
2023-02-07T19:05:22.091Z,5.83
2023-02-07T19:08:24.302Z,5.70
2023-02-07T19:11:26.761Z,5.60
2023-02-07T19:14:35.476Z,5.65
2023-02-07T19:17:37.844Z,5.67
2023-02-07T19:20:40.397Z,5.78
2023-02-07T19:23:42.939Z,5.73
2023-02-07T19:26:46.869Z,5.81
2023-02-07T19:29:49.205Z,5.73
2023-02-07T19:32:52.037Z,5.59
2023-02-07T19:35:54.685Z,5.59
2023-02-07T19:38:57.230Z,5.69
2023-02-07T19:45:15.922Z,5.49
2023-02-07T19:48:18.124Z,5.43
2023-02-07T19:51:27.335Z,5.50
2023-02-07T19:54:29.772Z,5.45
2023-02-07T19:57:33.336Z,5.50
2023-02-07T20:00:35.735Z,5.44
2023-02-07T20:03:45.328Z,5.45
2023-02-07T20:06:47.510Z,5.42
2023-02-07T20:09:50.114Z,5.51
2023-02-07T20:12:52.355Z,5.46
2023-02-07T20:15:54.551Z,5.40
2023-02-07T20:18:56.982Z,5.46
2023-02-07T20:21:59.223Z,5.47
2023-02-07T20:25:01.669Z,5.23
2023-02-07T20:28:05.175Z,4.89
2023-02-07T20:31:11.789Z,4.89
2023-02-07T20:34:14.905Z,4.89
2023-02-07T20:37:17.186Z,4.73
2023-02-07T20:40:19.411Z,4.74
2023-02-07T20:43:21.550Z,4.92
2023-02-07T20:46:24.218Z,4.91
2023-02-07T20:49:28.907Z,4.80
2023-02-07T20:52:31.251Z,5.00
2023-02-07T20:55:33.491Z,4.93
2023-02-07T20:58:35.913Z,4.78
2023-02-07T21:01:39.474Z,4.75
2023-02-07T21:04:42.940Z,4.85
2023-02-07T21:07:45.154Z,4.89
2023-02-07T21:10:47.323Z,4.88
2023-02-07T21:13:53.999Z,4.75
2023-02-07T21:17:02.371Z,4.68
2023-02-07T21:20:04.963Z,4.59
2023-02-07T21:23:07.789Z,4.46
2023-02-07T21:26:11.811Z,4.57
2023-02-07T21:29:17.185Z,4.41
2023-02-07T21:32:19.700Z,4.18
2023-02-07T21:35:21.834Z,4.33
2023-02-07T21:38:24.034Z,4.10
2023-02-07T21:41:28.930Z,4.20
2023-02-07T21:44:31.122Z,4.06
2023-02-07T21:47:33.295Z,4.08
2023-02-07T21:50:35.448Z,4.01
2023-02-07T21:53:38.163Z,4.09
2023-02-07T21:56:45.387Z,4.27
2023-02-07T21:59:47.780Z,4.20
2023-02-07T22:02:50.472Z,4.21
2023-02-07T22:05:52.937Z,4.39
2023-02-07T22:08:57.404Z,4.36
2023-02-07T22:11:59.729Z,4.05
2023-02-07T22:15:01.983Z,4.03
2023-02-07T22:18:05.108Z,3.95
2023-02-07T22:21:10.660Z,4.10
2023-02-07T22:24:14.602Z,4.09
2023-02-07T22:27:16.849Z,3.96
2023-02-07T22:30:19.869Z,3.91
2023-02-07T22:33:33.783Z,3.74
2023-02-07T22:36:39.244Z,4.08
2023-02-07T22:39:52.439Z,3.85
2023-02-07T22:46:32.539Z,4.00
2023-02-07T22:53:15.948Z,3.94
2023-02-07T22:56:18.678Z,3.72
2023-02-07T22:59:20.921Z,3.64
2023-02-07T23:02:23.078Z,3.55
2023-02-07T23:05:25.253Z,3.33
2023-02-07T23:08:27.424Z,3.22
2023-02-07T23:11:31.852Z,3.35
2023-02-07T23:14:34.016Z,3.40
2023-02-07T23:17:36.164Z,3.34
2023-02-07T23:20:38.560Z,3.16
2023-02-07T23:23:41.032Z,3.07
2023-02-07T23:26:43.192Z,3.30
2023-02-07T23:29:45.308Z,3.33
2023-02-07T23:32:47.455Z,3.43
2023-02-07T23:35:49.571Z,3.72
2023-02-07T23:38:51.804Z,3.65
2023-02-07T23:45:10.083Z,3.33
2023-02-07T23:48:12.318Z,3.28
2023-02-07T23:51:15.184Z,3.58
2023-02-07T23:54:17.344Z,3.80
2023-02-07T23:57:19.479Z,3.57
